sensor_id;sensor_type;location;lat;lon;timestamp;P1;durP1;ratioP1;P2;durP2;ratioP2
31734;SDS011;18313;48.518;9.124;2024-03-08T00:02:20;34.85;;;20.25;;
31734;SDS011;18313;48.518;9.124;2024-03-08T00:04:47;36.65;;;19.80;;
31734;SDS011;18313;48.518;9.124;2024-03-08T00:07:14;32.00;;;19.75;;
31734;SDS011;18313;48.518;9.124;2024-03-08T00:09:42;31.80;;;18.95;;
31734;SDS011;18313;48.518;9.124;2024-03-08T00:12:09;30.73;;;19.15;;
31734;SDS011;18313;48.518;9.124;2024-03-08T00:14:36;31.80;;;19.48;;
31734;SDS011;18313;48.518;9.124;2024-03-08T00:17:04;32.67;;;19.52;;
31734;SDS011;18313;48.518;9.124;2024-03-08T00:19:31;31.88;;;19.35;;
31734;SDS011;18313;48.518;9.124;2024-03-08T00:21:58;35.20;;;19.77;;
31734;SDS011;18313;48.518;9.124;2024-03-08T00:24:27;36.40;;;20.63;;
31734;SDS011;18313;48.518;9.124;2024-03-08T00:26:55;33.42;;;19.60;;
31734;SDS011;18313;48.518;9.124;2024-03-08T00:29:22;35.15;;;20.70;;
31734;SDS011;18313;48.518;9.124;2024-03-08T00:31:49;32.10;;;19.67;;
31734;SDS011;18313;48.518;9.124;2024-03-08T00:34:17;36.05;;;20.65;;
31734;SDS011;18313;48.518;9.124;2024-03-08T00:36:44;32.08;;;19.40;;
31734;SDS011;18313;48.518;9.124;2024-03-08T00:39:13;34.95;;;19.48;;
31734;SDS011;18313;48.518;9.124;2024-03-08T00:41:41;33.10;;;19.55;;
31734;SDS011;18313;48.518;9.124;2024-03-08T00:44:08;34.67;;;20.00;;
31734;SDS011;18313;48.518;9.124;2024-03-08T00:46:36;33.28;;;19.10;;
31734;SDS011;18313;48.518;9.124;2024-03-08T00:49:04;32.90;;;19.75;;
31734;SDS011;18313;48.518;9.124;2024-03-08T00:51:31;32.13;;;19.17;;
31734;SDS011;18313;48.518;9.124;2024-03-08T00:53:59;35.10;;;20.67;;
31734;SDS011;18313;48.518;9.124;2024-03-08T00:56:26;34.85;;;19.88;;
31734;SDS011;18313;48.518;9.124;2024-03-08T00:58:54;32.03;;;19.08;;
31734;SDS011;18313;48.518;9.124;2024-03-08T01:01:21;35.22;;;19.90;;
31734;SDS011;18313;48.518;9.124;2024-03-08T01:03:48;34.42;;;19.05;;
31734;SDS011;18313;48.518;9.124;2024-03-08T01:06:15;33.63;;;18.80;;
31734;SDS011;18313;48.518;9.124;2024-03-08T01:08:42;31.65;;;18.45;;
31734;SDS011;18313;48.518;9.124;2024-03-08T01:11:09;32.40;;;18.23;;
31734;SDS011;18313;48.518;9.124;2024-03-08T01:13:37;30.10;;;17.73;;
31734;SDS011;18313;48.518;9.124;2024-03-08T01:16:05;29.05;;;17.60;;
31734;SDS011;18313;48.518;9.124;2024-03-08T01:18:32;29.95;;;18.10;;
31734;SDS011;18313;48.518;9.124;2024-03-08T01:20:59;33.03;;;18.92;;
31734;SDS011;18313;48.518;9.124;2024-03-08T01:23:27;32.70;;;19.67;;
31734;SDS011;18313;48.518;9.124;2024-03-08T01:25:54;31.77;;;17.58;;
31734;SDS011;18313;48.518;9.124;2024-03-08T01:28:24;33.67;;;18.65;;
31734;SDS011;18313;48.518;9.124;2024-03-08T01:30:52;30.05;;;18.05;;
31734;SDS011;18313;48.518;9.124;2024-03-08T01:33:22;33.20;;;19.10;;
31734;SDS011;18313;48.518;9.124;2024-03-08T01:35:52;34.38;;;18.75;;
31734;SDS011;18313;48.518;9.124;2024-03-08T01:38:20;35.92;;;19.92;;
31734;SDS011;18313;48.518;9.124;2024-03-08T01:40:50;32.63;;;18.63;;
31734;SDS011;18313;48.518;9.124;2024-03-08T01:43:18;34.85;;;18.95;;
31734;SDS011;18313;48.518;9.124;2024-03-08T01:45:51;33.78;;;19.40;;
31734;SDS011;18313;48.518;9.124;2024-03-08T01:48:19;32.47;;;19.63;;
31734;SDS011;18313;48.518;9.124;2024-03-08T01:50:50;35.72;;;20.08;;
31734;SDS011;18313;48.518;9.124;2024-03-08T01:53:19;32.38;;;19.52;;
31734;SDS011;18313;48.518;9.124;2024-03-08T01:55:47;31.17;;;18.27;;
31734;SDS011;18313;48.518;9.124;2024-03-08T01:58:16;31.30;;;18.63;;
31734;SDS011;18313;48.518;9.124;2024-03-08T02:00:46;27.08;;;17.25;;
31734;SDS011;18313;48.518;9.124;2024-03-08T02:03:17;32.13;;;18.38;;
31734;SDS011;18313;48.518;9.124;2024-03-08T02:05:45;31.17;;;18.15;;
31734;SDS011;18313;48.518;9.124;2024-03-08T02:08:12;30.83;;;18.80;;
31734;SDS011;18313;48.518;9.124;2024-03-08T02:10:41;32.15;;;17.58;;
31734;SDS011;18313;48.518;9.124;2024-03-08T02:13:08;30.00;;;18.10;;
31734;SDS011;18313;48.518;9.124;2024-03-08T02:16:10;29.80;;;17.92;;
31734;SDS011;18313;48.518;9.124;2024-03-08T02:18:31;29.48;;;17.98;;
31734;SDS011;18313;48.518;9.124;2024-03-08T02:21:01;29.92;;;16.88;;
31734;SDS011;18313;48.518;9.124;2024-03-08T02:23:30;38.38;;;21.63;;
31734;SDS011;18313;48.518;9.124;2024-03-08T02:25:59;30.48;;;18.05;;
31734;SDS011;18313;48.518;9.124;2024-03-08T02:28:27;28.45;;;17.10;;
31734;SDS011;18313;48.518;9.124;2024-03-08T02:30:55;31.75;;;17.48;;
31734;SDS011;18313;48.518;9.124;2024-03-08T02:33:24;28.45;;;17.30;;
31734;SDS011;18313;48.518;9.124;2024-03-08T02:35:52;28.63;;;17.25;;
31734;SDS011;18313;48.518;9.124;2024-03-08T02:38:20;28.60;;;16.83;;
31734;SDS011;18313;48.518;9.124;2024-03-08T02:40:49;31.17;;;17.63;;
31734;SDS011;18313;48.518;9.124;2024-03-08T02:43:18;27.63;;;16.95;;
31734;SDS011;18313;48.518;9.124;2024-03-08T02:45:46;31.27;;;17.65;;
31734;SDS011;18313;48.518;9.124;2024-03-08T02:48:14;26.23;;;15.95;;
31734;SDS011;18313;48.518;9.124;2024-03-08T02:50:43;28.77;;;17.10;;
31734;SDS011;18313;48.518;9.124;2024-03-08T02:53:12;29.20;;;16.48;;
31734;SDS011;18313;48.518;9.124;2024-03-08T02:55:40;31.13;;;16.85;;
31734;SDS011;18313;48.518;9.124;2024-03-08T02:58:08;32.97;;;17.73;;
31734;SDS011;18313;48.518;9.124;2024-03-08T03:00:38;28.95;;;17.02;;
31734;SDS011;18313;48.518;9.124;2024-03-08T03:03:07;35.22;;;18.15;;
31734;SDS011;18313;48.518;9.124;2024-03-08T03:05:34;31.05;;;17.27;;
31734;SDS011;18313;48.518;9.124;2024-03-08T03:08:02;29.50;;;17.75;;
31734;SDS011;18313;48.518;9.124;2024-03-08T03:10:36;31.15;;;17.67;;
31734;SDS011;18313;48.518;9.124;2024-03-08T03:13:04;30.52;;;17.90;;
31734;SDS011;18313;48.518;9.124;2024-03-08T03:15:31;29.33;;;17.83;;
31734;SDS011;18313;48.518;9.124;2024-03-08T03:18:01;32.33;;;18.52;;
31734;SDS011;18313;48.518;9.124;2024-03-08T03:20:28;30.60;;;17.20;;
31734;SDS011;18313;48.518;9.124;2024-03-08T03:23:08;30.05;;;17.52;;
31734;SDS011;18313;48.518;9.124;2024-03-08T03:25:36;29.33;;;17.38;;
31734;SDS011;18313;48.518;9.124;2024-03-08T03:28:05;31.10;;;19.13;;
31734;SDS011;18313;48.518;9.124;2024-03-08T03:30:34;31.85;;;19.42;;
31734;SDS011;18313;48.518;9.124;2024-03-08T03:33:02;31.33;;;18.60;;
31734;SDS011;18313;48.518;9.124;2024-03-08T03:35:34;30.73;;;19.08;;
31734;SDS011;18313;48.518;9.124;2024-03-08T03:38:04;34.60;;;19.50;;
31734;SDS011;18313;48.518;9.124;2024-03-08T03:40:37;34.88;;;19.42;;
31734;SDS011;18313;48.518;9.124;2024-03-08T03:43:05;31.42;;;18.70;;
31734;SDS011;18313;48.518;9.124;2024-03-08T03:45:33;33.97;;;19.73;;
31734;SDS011;18313;48.518;9.124;2024-03-08T03:48:07;35.80;;;19.30;;
31734;SDS011;18313;48.518;9.124;2024-03-08T03:50:38;32.95;;;19.48;;
31734;SDS011;18313;48.518;9.124;2024-03-08T03:53:07;36.53;;;19.50;;
31734;SDS011;18313;48.518;9.124;2024-03-08T03:55:36;35.80;;;19.70;;
31734;SDS011;18313;48.518;9.124;2024-03-08T03:58:07;33.75;;;18.83;;
31734;SDS011;18313;48.518;9.124;2024-03-08T04:00:37;32.42;;;18.85;;
31734;SDS011;18313;48.518;9.124;2024-03-08T04:03:05;32.03;;;18.88;;
31734;SDS011;18313;48.518;9.124;2024-03-08T04:05:33;34.72;;;17.60;;
31734;SDS011;18313;48.518;9.124;2024-03-08T04:08:01;31.83;;;18.40;;
31734;SDS011;18313;48.518;9.124;2024-03-08T04:10:29;40.50;;;23.58;;
31734;SDS011;18313;48.518;9.124;2024-03-08T04:12:56;50.95;;;28.63;;
31734;SDS011;18313;48.518;9.124;2024-03-08T04:15:24;41.20;;;22.95;;
31734;SDS011;18313;48.518;9.124;2024-03-08T04:17:51;35.58;;;21.02;;
31734;SDS011;18313;48.518;9.124;2024-03-08T04:20:19;34.67;;;20.52;;
31734;SDS011;18313;48.518;9.124;2024-03-08T04:22:48;34.47;;;19.10;;
31734;SDS011;18313;48.518;9.124;2024-03-08T04:25:16;34.30;;;19.75;;
31734;SDS011;18313;48.518;9.124;2024-03-08T04:27:43;34.13;;;18.25;;
31734;SDS011;18313;48.518;9.124;2024-03-08T04:30:11;31.20;;;18.83;;
31734;SDS011;18313;48.518;9.124;2024-03-08T04:32:39;32.40;;;17.90;;
31734;SDS011;18313;48.518;9.124;2024-03-08T04:35:08;31.75;;;18.13;;
31734;SDS011;18313;48.518;9.124;2024-03-08T04:37:43;34.67;;;19.10;;
31734;SDS011;18313;48.518;9.124;2024-03-08T04:40:12;32.50;;;17.92;;
31734;SDS011;18313;48.518;9.124;2024-03-08T04:42:39;35.25;;;19.00;;
31734;SDS011;18313;48.518;9.124;2024-03-08T04:45:09;36.83;;;19.70;;
31734;SDS011;18313;48.518;9.124;2024-03-08T04:47:38;31.77;;;19.40;;
31734;SDS011;18313;48.518;9.124;2024-03-08T04:50:08;33.30;;;18.98;;
31734;SDS011;18313;48.518;9.124;2024-03-08T04:52:36;34.33;;;19.63;;
31734;SDS011;18313;48.518;9.124;2024-03-08T04:55:03;33.95;;;19.10;;
31734;SDS011;18313;48.518;9.124;2024-03-08T04:57:31;36.65;;;20.10;;
31734;SDS011;18313;48.518;9.124;2024-03-08T04:59:59;34.80;;;20.05;;
31734;SDS011;18313;48.518;9.124;2024-03-08T05:02:26;34.70;;;18.63;;
31734;SDS011;18313;48.518;9.124;2024-03-08T05:04:53;37.00;;;20.20;;
31734;SDS011;18313;48.518;9.124;2024-03-08T05:07:20;37.30;;;19.58;;
31734;SDS011;18313;48.518;9.124;2024-03-08T05:09:48;36.42;;;21.70;;
31734;SDS011;18313;48.518;9.124;2024-03-08T05:12:18;35.88;;;20.45;;
31734;SDS011;18313;48.518;9.124;2024-03-08T05:14:45;35.90;;;20.00;;
31734;SDS011;18313;48.518;9.124;2024-03-08T05:17:16;34.75;;;20.30;;
31734;SDS011;18313;48.518;9.124;2024-03-08T05:19:47;34.92;;;20.38;;
31734;SDS011;18313;48.518;9.124;2024-03-08T05:22:14;35.47;;;19.02;;
31734;SDS011;18313;48.518;9.124;2024-03-08T05:24:41;32.40;;;18.15;;
31734;SDS011;18313;48.518;9.124;2024-03-08T05:27:09;34.42;;;20.70;;
31734;SDS011;18313;48.518;9.124;2024-03-08T05:29:36;32.78;;;19.48;;
31734;SDS011;18313;48.518;9.124;2024-03-08T05:32:04;33.65;;;19.38;;
31734;SDS011;18313;48.518;9.124;2024-03-08T05:34:32;35.10;;;19.35;;
31734;SDS011;18313;48.518;9.124;2024-03-08T05:36:59;33.63;;;19.85;;
31734;SDS011;18313;48.518;9.124;2024-03-08T05:39:27;34.03;;;20.02;;
31734;SDS011;18313;48.518;9.124;2024-03-08T05:41:55;33.05;;;19.27;;
31734;SDS011;18313;48.518;9.124;2024-03-08T05:44:22;34.67;;;20.13;;
31734;SDS011;18313;48.518;9.124;2024-03-08T05:46:50;42.17;;;24.88;;
31734;SDS011;18313;48.518;9.124;2024-03-08T05:49:17;34.03;;;20.50;;
31734;SDS011;18313;48.518;9.124;2024-03-08T05:51:44;35.08;;;19.88;;
31734;SDS011;18313;48.518;9.124;2024-03-08T05:54:14;37.33;;;19.70;;
31734;SDS011;18313;48.518;9.124;2024-03-08T05:56:45;34.97;;;20.20;;
31734;SDS011;18313;48.518;9.124;2024-03-08T05:59:14;33.97;;;19.88;;
31734;SDS011;18313;48.518;9.124;2024-03-08T06:01:41;32.63;;;19.00;;
31734;SDS011;18313;48.518;9.124;2024-03-08T06:04:09;36.17;;;21.20;;
31734;SDS011;18313;48.518;9.124;2024-03-08T06:06:38;35.38;;;20.35;;
31734;SDS011;18313;48.518;9.124;2024-03-08T06:09:07;34.88;;;20.20;;
31734;SDS011;18313;48.518;9.124;2024-03-08T06:11:53;39.65;;;21.65;;
31734;SDS011;18313;48.518;9.124;2024-03-08T06:14:21;35.50;;;20.17;;
31734;SDS011;18313;48.518;9.124;2024-03-08T06:16:49;35.40;;;20.17;;
31734;SDS011;18313;48.518;9.124;2024-03-08T06:19:17;35.30;;;20.55;;
31734;SDS011;18313;48.518;9.124;2024-03-08T06:21:44;34.33;;;19.67;;
31734;SDS011;18313;48.518;9.124;2024-03-08T06:24:14;37.05;;;21.08;;
31734;SDS011;18313;48.518;9.124;2024-03-08T06:26:42;40.55;;;22.27;;
31734;SDS011;18313;48.518;9.124;2024-03-08T06:29:09;35.80;;;20.75;;
31734;SDS011;18313;48.518;9.124;2024-03-08T06:31:36;38.75;;;20.40;;
31734;SDS011;18313;48.518;9.124;2024-03-08T06:34:06;36.30;;;20.98;;
31734;SDS011;18313;48.518;9.124;2024-03-08T06:36:36;35.10;;;20.67;;
31734;SDS011;18313;48.518;9.124;2024-03-08T06:39:05;44.25;;;21.15;;
31734;SDS011;18313;48.518;9.124;2024-03-08T06:41:37;37.97;;;21.75;;
31734;SDS011;18313;48.518;9.124;2024-03-08T06:44:04;36.53;;;20.80;;
31734;SDS011;18313;48.518;9.124;2024-03-08T06:46:31;37.20;;;20.55;;
31734;SDS011;18313;48.518;9.124;2024-03-08T06:48:59;35.53;;;21.00;;
31734;SDS011;18313;48.518;9.124;2024-03-08T06:51:26;32.90;;;19.73;;
31734;SDS011;18313;48.518;9.124;2024-03-08T06:53:53;34.10;;;19.98;;
31734;SDS011;18313;48.518;9.124;2024-03-08T06:56:20;37.33;;;20.95;;
31734;SDS011;18313;48.518;9.124;2024-03-08T06:58:49;34.03;;;19.55;;
31734;SDS011;18313;48.518;9.124;2024-03-08T07:01:16;35.83;;;20.33;;
31734;SDS011;18313;48.518;9.124;2024-03-08T07:03:44;34.90;;;20.00;;
31734;SDS011;18313;48.518;9.124;2024-03-08T07:06:11;35.58;;;20.48;;
31734;SDS011;18313;48.518;9.124;2024-03-08T07:08:39;32.83;;;19.98;;
31734;SDS011;18313;48.518;9.124;2024-03-08T07:11:06;36.53;;;19.85;;
31734;SDS011;18313;48.518;9.124;2024-03-08T07:13:34;36.38;;;20.73;;
31734;SDS011;18313;48.518;9.124;2024-03-08T07:16:06;32.67;;;19.17;;
31734;SDS011;18313;48.518;9.124;2024-03-08T07:18:35;33.30;;;18.98;;
31734;SDS011;18313;48.518;9.124;2024-03-08T07:21:06;34.97;;;19.58;;
31734;SDS011;18313;48.518;9.124;2024-03-08T07:23:34;34.50;;;18.95;;
31734;SDS011;18313;48.518;9.124;2024-03-08T07:26:20;33.00;;;18.33;;
31734;SDS011;18313;48.518;9.124;2024-03-08T07:28:47;32.13;;;18.90;;
31734;SDS011;18313;48.518;9.124;2024-03-08T07:31:15;31.08;;;18.40;;
31734;SDS011;18313;48.518;9.124;2024-03-08T07:34:11;33.38;;;18.38;;
31734;SDS011;18313;48.518;9.124;2024-03-08T07:36:39;31.08;;;18.38;;
31734;SDS011;18313;48.518;9.124;2024-03-08T07:39:07;31.20;;;18.70;;
31734;SDS011;18313;48.518;9.124;2024-03-08T07:41:38;30.80;;;18.42;;
31734;SDS011;18313;48.518;9.124;2024-03-08T07:44:08;35.00;;;18.30;;
31734;SDS011;18313;48.518;9.124;2024-03-08T07:46:36;33.28;;;19.42;;
31734;SDS011;18313;48.518;9.124;2024-03-08T07:49:03;35.78;;;18.80;;
31734;SDS011;18313;48.518;9.124;2024-03-08T07:51:31;30.60;;;18.15;;
31734;SDS011;18313;48.518;9.124;2024-03-08T07:54:01;32.00;;;19.10;;
31734;SDS011;18313;48.518;9.124;2024-03-08T07:56:31;32.80;;;17.80;;
31734;SDS011;18313;48.518;9.124;2024-03-08T07:58:59;31.73;;;18.80;;
31734;SDS011;18313;48.518;9.124;2024-03-08T08:01:26;32.42;;;17.60;;
31734;SDS011;18313;48.518;9.124;2024-03-08T08:03:53;31.33;;;18.42;;
31734;SDS011;18313;48.518;9.124;2024-03-08T08:06:21;31.58;;;18.67;;
31734;SDS011;18313;48.518;9.124;2024-03-08T08:08:48;30.00;;;18.17;;
31734;SDS011;18313;48.518;9.124;2024-03-08T08:11:16;31.63;;;18.00;;
31734;SDS011;18313;48.518;9.124;2024-03-08T08:13:43;31.38;;;18.88;;
31734;SDS011;18313;48.518;9.124;2024-03-08T08:16:10;31.17;;;18.10;;
31734;SDS011;18313;48.518;9.124;2024-03-08T08:18:39;29.15;;;17.88;;
31734;SDS011;18313;48.518;9.124;2024-03-08T08:21:07;29.67;;;17.67;;
31734;SDS011;18313;48.518;9.124;2024-03-08T08:23:35;35.75;;;19.58;;
31734;SDS011;18313;48.518;9.124;2024-03-08T08:26:02;28.25;;;17.80;;
31734;SDS011;18313;48.518;9.124;2024-03-08T08:28:29;31.38;;;18.80;;
31734;SDS011;18313;48.518;9.124;2024-03-08T08:30:57;31.25;;;18.27;;
31734;SDS011;18313;48.518;9.124;2024-03-08T08:33:26;30.35;;;17.80;;
31734;SDS011;18313;48.518;9.124;2024-03-08T08:35:54;30.45;;;17.30;;
31734;SDS011;18313;48.518;9.124;2024-03-08T08:38:21;31.17;;;17.38;;
31734;SDS011;18313;48.518;9.124;2024-03-08T08:40:49;32.38;;;18.65;;
31734;SDS011;18313;48.518;9.124;2024-03-08T08:43:17;31.00;;;18.98;;
31734;SDS011;18313;48.518;9.124;2024-03-08T08:45:46;33.15;;;19.05;;
31734;SDS011;18313;48.518;9.124;2024-03-08T08:48:15;26.05;;;16.40;;
31734;SDS011;18313;48.518;9.124;2024-03-08T08:50:42;24.77;;;15.52;;
31734;SDS011;18313;48.518;9.124;2024-03-08T08:53:14;26.60;;;16.55;;
31734;SDS011;18313;48.518;9.124;2024-03-08T08:55:46;27.35;;;16.23;;
31734;SDS011;18313;48.518;9.124;2024-03-08T08:58:17;29.25;;;15.63;;
31734;SDS011;18313;48.518;9.124;2024-03-08T09:00:46;26.42;;;16.00;;
31734;SDS011;18313;48.518;9.124;2024-03-08T09:03:14;24.55;;;15.73;;
31734;SDS011;18313;48.518;9.124;2024-03-08T09:05:43;23.67;;;15.07;;
31734;SDS011;18313;48.518;9.124;2024-03-08T09:08:13;24.75;;;15.85;;
31734;SDS011;18313;48.518;9.124;2024-03-08T09:10:40;26.02;;;15.90;;
31734;SDS011;18313;48.518;9.124;2024-03-08T09:13:08;26.30;;;15.90;;
31734;SDS011;18313;48.518;9.124;2024-03-08T09:15:47;24.02;;;15.65;;
31734;SDS011;18313;48.518;9.124;2024-03-08T09:18:17;24.63;;;15.20;;
31734;SDS011;18313;48.518;9.124;2024-03-08T09:20:46;26.25;;;15.48;;
31734;SDS011;18313;48.518;9.124;2024-03-08T09:23:13;25.35;;;15.95;;
31734;SDS011;18313;48.518;9.124;2024-03-08T09:25:43;25.63;;;15.38;;
31734;SDS011;18313;48.518;9.124;2024-03-08T09:28:13;25.60;;;15.07;;
31734;SDS011;18313;48.518;9.124;2024-03-08T09:30:40;24.88;;;15.15;;
31734;SDS011;18313;48.518;9.124;2024-03-08T09:33:14;25.40;;;15.30;;
31734;SDS011;18313;48.518;9.124;2024-03-08T09:35:45;24.23;;;15.75;;
31734;SDS011;18313;48.518;9.124;2024-03-08T09:38:17;24.63;;;15.30;;
31734;SDS011;18313;48.518;9.124;2024-03-08T09:40:49;24.92;;;15.43;;
31734;SDS011;18313;48.518;9.124;2024-03-08T09:43:18;23.77;;;15.15;;
31734;SDS011;18313;48.518;9.124;2024-03-08T09:45:48;25.52;;;15.50;;
31734;SDS011;18313;48.518;9.124;2024-03-08T09:48:17;22.25;;;15.18;;
31734;SDS011;18313;48.518;9.124;2024-03-08T09:50:48;24.58;;;15.20;;
31734;SDS011;18313;48.518;9.124;2024-03-08T09:53:15;26.25;;;15.45;;
31734;SDS011;18313;48.518;9.124;2024-03-08T09:55:43;22.67;;;14.27;;
31734;SDS011;18313;48.518;9.124;2024-03-08T09:58:16;24.70;;;14.85;;
31734;SDS011;18313;48.518;9.124;2024-03-08T10:00:46;23.75;;;15.55;;
31734;SDS011;18313;48.518;9.124;2024-03-08T10:03:13;24.00;;;15.10;;
31734;SDS011;18313;48.518;9.124;2024-03-08T10:05:41;22.92;;;13.88;;
31734;SDS011;18313;48.518;9.124;2024-03-08T10:08:11;24.58;;;15.50;;
31734;SDS011;18313;48.518;9.124;2024-03-08T10:10:40;26.17;;;14.18;;
31734;SDS011;18313;48.518;9.124;2024-03-08T10:13:08;23.92;;;14.48;;
31734;SDS011;18313;48.518;9.124;2024-03-08T10:15:37;22.45;;;13.65;;
31734;SDS011;18313;48.518;9.124;2024-03-08T10:18:08;23.88;;;14.80;;
31734;SDS011;18313;48.518;9.124;2024-03-08T10:20:36;22.98;;;14.02;;
31734;SDS011;18313;48.518;9.124;2024-03-08T10:23:04;22.20;;;13.73;;
31734;SDS011;18313;48.518;9.124;2024-03-08T10:25:37;21.08;;;13.27;;
31734;SDS011;18313;48.518;9.124;2024-03-08T10:28:05;22.55;;;13.93;;
31734;SDS011;18313;48.518;9.124;2024-03-08T10:30:33;24.25;;;13.85;;
31734;SDS011;18313;48.518;9.124;2024-03-08T10:33:01;25.40;;;15.35;;
31734;SDS011;18313;48.518;9.124;2024-03-08T10:35:32;23.10;;;14.15;;
31734;SDS011;18313;48.518;9.124;2024-03-08T10:37:59;24.42;;;15.43;;
31734;SDS011;18313;48.518;9.124;2024-03-08T10:40:35;25.67;;;15.15;;
31734;SDS011;18313;48.518;9.124;2024-03-08T10:43:06;24.00;;;15.55;;
31734;SDS011;18313;48.518;9.124;2024-03-08T10:45:43;26.23;;;15.15;;
31734;SDS011;18313;48.518;9.124;2024-03-08T10:50:43;25.40;;;15.48;;
31734;SDS011;18313;48.518;9.124;2024-03-08T10:55:45;24.92;;;14.73;;
31734;SDS011;18313;48.518;9.124;2024-03-08T10:58:14;23.58;;;14.63;;
31734;SDS011;18313;48.518;9.124;2024-03-08T11:00:42;23.17;;;14.60;;
31734;SDS011;18313;48.518;9.124;2024-03-08T11:09:11;24.02;;;14.77;;
31734;SDS011;18313;48.518;9.124;2024-03-08T11:14:46;22.90;;;14.38;;
31734;SDS011;18313;48.518;9.124;2024-03-08T11:18:01;23.25;;;15.13;;
31734;SDS011;18313;48.518;9.124;2024-03-08T11:20:16;23.10;;;14.50;;
31734;SDS011;18313;48.518;9.124;2024-03-08T11:22:52;23.85;;;13.93;;
31734;SDS011;18313;48.518;9.124;2024-03-08T11:25:34;23.35;;;15.00;;
31734;SDS011;18313;48.518;9.124;2024-03-08T11:28:12;23.38;;;14.68;;
31734;SDS011;18313;48.518;9.124;2024-03-08T11:30:45;22.95;;;13.85;;
31734;SDS011;18313;48.518;9.124;2024-03-08T11:33:35;20.95;;;13.57;;
31734;SDS011;18313;48.518;9.124;2024-03-08T11:38:50;21.35;;;12.98;;
31734;SDS011;18313;48.518;9.124;2024-03-08T11:41:23;21.88;;;14.65;;
31734;SDS011;18313;48.518;9.124;2024-03-08T11:44:03;19.27;;;12.90;;
31734;SDS011;18313;48.518;9.124;2024-03-08T11:46:32;19.08;;;12.60;;
31734;SDS011;18313;48.518;9.124;2024-03-08T11:49:00;20.20;;;13.38;;
31734;SDS011;18313;48.518;9.124;2024-03-08T11:51:30;22.75;;;13.57;;
31734;SDS011;18313;48.518;9.124;2024-03-08T11:53:59;20.65;;;14.43;;
31734;SDS011;18313;48.518;9.124;2024-03-08T11:56:27;20.88;;;13.85;;
31734;SDS011;18313;48.518;9.124;2024-03-08T11:58:55;21.25;;;14.38;;
31734;SDS011;18313;48.518;9.124;2024-03-08T12:01:24;22.05;;;14.10;;
31734;SDS011;18313;48.518;9.124;2024-03-08T12:03:56;21.67;;;14.02;;
31734;SDS011;18313;48.518;9.124;2024-03-08T12:06:26;22.13;;;14.88;;
31734;SDS011;18313;48.518;9.124;2024-03-08T12:09:02;21.27;;;13.57;;
31734;SDS011;18313;48.518;9.124;2024-03-08T12:11:29;26.33;;;15.25;;
31734;SDS011;18313;48.518;9.124;2024-03-08T12:14:00;20.73;;;14.10;;
31734;SDS011;18313;48.518;9.124;2024-03-08T12:16:28;23.27;;;14.60;;
31734;SDS011;18313;48.518;9.124;2024-03-08T12:18:55;21.48;;;13.88;;
31734;SDS011;18313;48.518;9.124;2024-03-08T12:21:25;21.17;;;13.82;;
31734;SDS011;18313;48.518;9.124;2024-03-08T12:24:03;22.00;;;13.23;;
31734;SDS011;18313;48.518;9.124;2024-03-08T12:26:31;22.13;;;13.48;;
31734;SDS011;18313;48.518;9.124;2024-03-08T12:31:47;20.52;;;13.65;;
31734;SDS011;18313;48.518;9.124;2024-03-08T12:34:16;21.55;;;13.88;;
31734;SDS011;18313;48.518;9.124;2024-03-08T12:36:46;20.15;;;13.65;;
31734;SDS011;18313;48.518;9.124;2024-03-08T12:39:17;21.67;;;13.80;;
31734;SDS011;18313;48.518;9.124;2024-03-08T12:41:55;21.98;;;14.25;;
31734;SDS011;18313;48.518;9.124;2024-03-08T12:44:24;24.05;;;14.77;;
31734;SDS011;18313;48.518;9.124;2024-03-08T12:46:52;23.08;;;14.27;;
31734;SDS011;18313;48.518;9.124;2024-03-08T12:49:21;23.17;;;14.07;;
31734;SDS011;18313;48.518;9.124;2024-03-08T12:51:49;21.15;;;13.65;;
31734;SDS011;18313;48.518;9.124;2024-03-08T12:54:19;25.60;;;14.05;;
31734;SDS011;18313;48.518;9.124;2024-03-08T12:56:50;23.45;;;15.05;;
31734;SDS011;18313;48.518;9.124;2024-03-08T12:59:21;22.25;;;14.85;;
31734;SDS011;18313;48.518;9.124;2024-03-08T13:01:48;21.00;;;14.30;;
31734;SDS011;18313;48.518;9.124;2024-03-08T13:04:18;22.65;;;14.23;;
31734;SDS011;18313;48.518;9.124;2024-03-08T13:06:48;21.63;;;13.93;;
31734;SDS011;18313;48.518;9.124;2024-03-08T13:09:21;21.30;;;14.20;;
31734;SDS011;18313;48.518;9.124;2024-03-08T13:11:49;20.90;;;13.60;;
31734;SDS011;18313;48.518;9.124;2024-03-08T13:14:16;22.48;;;14.30;;
31734;SDS011;18313;48.518;9.124;2024-03-08T13:16:44;20.50;;;14.05;;
31734;SDS011;18313;48.518;9.124;2024-03-08T13:19:15;21.98;;;13.80;;
31734;SDS011;18313;48.518;9.124;2024-03-08T13:21:43;20.65;;;13.95;;
31734;SDS011;18313;48.518;9.124;2024-03-08T13:24:16;21.75;;;14.77;;
31734;SDS011;18313;48.518;9.124;2024-03-08T13:26:43;21.55;;;14.35;;
31734;SDS011;18313;48.518;9.124;2024-03-08T13:29:13;21.15;;;14.07;;
31734;SDS011;18313;48.518;9.124;2024-03-08T13:31:41;20.77;;;13.90;;
31734;SDS011;18313;48.518;9.124;2024-03-08T13:34:09;24.27;;;14.70;;
31734;SDS011;18313;48.518;9.124;2024-03-08T13:36:38;21.70;;;14.20;;
31734;SDS011;18313;48.518;9.124;2024-03-08T13:39:11;20.58;;;13.82;;
31734;SDS011;18313;48.518;9.124;2024-03-08T13:41:47;20.38;;;14.20;;
31734;SDS011;18313;48.518;9.124;2024-03-08T13:44:14;21.05;;;14.07;;
31734;SDS011;18313;48.518;9.124;2024-03-08T13:46:43;19.42;;;13.48;;
31734;SDS011;18313;48.518;9.124;2024-03-08T13:49:18;18.25;;;13.13;;
31734;SDS011;18313;48.518;9.124;2024-03-08T13:51:45;21.38;;;14.73;;
31734;SDS011;18313;48.518;9.124;2024-03-08T13:54:12;21.70;;;13.98;;
31734;SDS011;18313;48.518;9.124;2024-03-08T13:56:40;21.55;;;14.45;;
31734;SDS011;18313;48.518;9.124;2024-03-08T13:59:10;20.63;;;14.25;;
31734;SDS011;18313;48.518;9.124;2024-03-08T14:01:38;22.52;;;14.95;;
31734;SDS011;18313;48.518;9.124;2024-03-08T14:04:05;20.23;;;13.48;;
31734;SDS011;18313;48.518;9.124;2024-03-08T14:06:35;21.73;;;13.70;;
31734;SDS011;18313;48.518;9.124;2024-03-08T14:09:02;22.98;;;13.77;;
31734;SDS011;18313;48.518;9.124;2024-03-08T14:11:29;19.88;;;13.57;;
31734;SDS011;18313;48.518;9.124;2024-03-08T14:13:57;21.23;;;13.45;;
31734;SDS011;18313;48.518;9.124;2024-03-08T14:16:24;18.83;;;12.52;;
31734;SDS011;18313;48.518;9.124;2024-03-08T14:18:52;17.58;;;12.23;;
31734;SDS011;18313;48.518;9.124;2024-03-08T14:21:20;19.45;;;12.93;;
31734;SDS011;18313;48.518;9.124;2024-03-08T14:23:48;20.15;;;13.85;;
31734;SDS011;18313;48.518;9.124;2024-03-08T14:26:17;21.20;;;13.45;;
31734;SDS011;18313;48.518;9.124;2024-03-08T14:28:44;20.88;;;13.13;;
31734;SDS011;18313;48.518;9.124;2024-03-08T14:31:12;21.00;;;13.73;;
31734;SDS011;18313;48.518;9.124;2024-03-08T14:33:40;20.20;;;13.18;;
31734;SDS011;18313;48.518;9.124;2024-03-08T14:36:09;21.30;;;13.00;;
31734;SDS011;18313;48.518;9.124;2024-03-08T14:38:40;19.80;;;12.82;;
31734;SDS011;18313;48.518;9.124;2024-03-08T14:41:07;19.33;;;12.75;;
31734;SDS011;18313;48.518;9.124;2024-03-08T14:43:36;21.90;;;13.57;;
31734;SDS011;18313;48.518;9.124;2024-03-08T14:46:04;22.05;;;13.13;;
31734;SDS011;18313;48.518;9.124;2024-03-08T14:48:32;21.40;;;13.85;;
31734;SDS011;18313;48.518;9.124;2024-03-08T14:50:59;20.17;;;13.23;;
31734;SDS011;18313;48.518;9.124;2024-03-08T14:53:27;20.92;;;13.52;;